sensor_id;sensor_type;location;lat;lon;timestamp;P1;durP1;ratioP1;P2;durP2;ratioP2
70549;SDS011;58101;48.658;2.328;2022-12-05T00:02:08;152.90;;;45.75;;
70549;SDS011;58101;48.658;2.328;2022-12-05T00:04:34;82.25;;;30.20;;
70549;SDS011;58101;48.658;2.328;2022-12-05T00:07:00;51.75;;;19.42;;
70549;SDS011;58101;48.658;2.328;2022-12-05T00:09:25;42.00;;;16.25;;
70549;SDS011;58101;48.658;2.328;2022-12-05T00:11:51;41.38;;;15.23;;
70549;SDS011;58101;48.658;2.328;2022-12-05T00:14:17;37.55;;;13.98;;
70549;SDS011;58101;48.658;2.328;2022-12-05T00:16:43;40.45;;;14.45;;
70549;SDS011;58101;48.658;2.328;2022-12-05T00:19:10;39.00;;;13.48;;
70549;SDS011;58101;48.658;2.328;2022-12-05T00:21:38;38.40;;;13.10;;
70549;SDS011;58101;48.658;2.328;2022-12-05T00:24:05;38.83;;;13.30;;
70549;SDS011;58101;48.658;2.328;2022-12-05T00:26:32;37.78;;;13.40;;
70549;SDS011;58101;48.658;2.328;2022-12-05T00:28:58;33.42;;;11.45;;
70549;SDS011;58101;48.658;2.328;2022-12-05T00:31:25;35.03;;;11.75;;
70549;SDS011;58101;48.658;2.328;2022-12-05T00:33:52;34.78;;;11.80;;
70549;SDS011;58101;48.658;2.328;2022-12-05T00:38:48;34.92;;;11.38;;
70549;SDS011;58101;48.658;2.328;2022-12-05T00:41:15;30.42;;;10.63;;
70549;SDS011;58101;48.658;2.328;2022-12-05T00:43:45;35.10;;;12.18;;
70549;SDS011;58101;48.658;2.328;2022-12-05T00:46:12;34.65;;;11.40;;
70549;SDS011;58101;48.658;2.328;2022-12-05T00:48:39;32.78;;;11.02;;
70549;SDS011;58101;48.658;2.328;2022-12-05T00:51:07;36.50;;;12.15;;
70549;SDS011;58101;48.658;2.328;2022-12-05T00:53:37;32.72;;;10.55;;
70549;SDS011;58101;48.658;2.328;2022-12-05T00:56:04;32.95;;;10.65;;
70549;SDS011;58101;48.658;2.328;2022-12-05T00:58:32;39.58;;;12.60;;
70549;SDS011;58101;48.658;2.328;2022-12-05T01:01:32;35.42;;;11.55;;
70549;SDS011;58101;48.658;2.328;2022-12-05T01:03:53;37.65;;;12.32;;
70549;SDS011;58101;48.658;2.328;2022-12-05T01:06:20;31.05;;;11.02;;
70549;SDS011;58101;48.658;2.328;2022-12-05T01:08:46;34.80;;;11.02;;
70549;SDS011;58101;48.658;2.328;2022-12-05T01:11:13;32.13;;;10.70;;
70549;SDS011;58101;48.658;2.328;2022-12-05T01:13:40;35.78;;;11.95;;
70549;SDS011;58101;48.658;2.328;2022-12-05T01:16:11;33.00;;;10.90;;
70549;SDS011;58101;48.658;2.328;2022-12-05T01:18:42;30.80;;;10.23;;
70549;SDS011;58101;48.658;2.328;2022-12-05T01:21:07;30.15;;;10.23;;
70549;SDS011;58101;48.658;2.328;2022-12-05T01:23:34;31.38;;;10.38;;
70549;SDS011;58101;48.658;2.328;2022-12-05T01:25:59;32.83;;;10.20;;
70549;SDS011;58101;48.658;2.328;2022-12-05T01:28:30;31.23;;;10.43;;
70549;SDS011;58101;48.658;2.328;2022-12-05T01:30:56;28.45;;;9.65;;
70549;SDS011;58101;48.658;2.328;2022-12-05T01:33:22;29.95;;;10.02;;
70549;SDS011;58101;48.658;2.328;2022-12-05T01:35:48;29.08;;;10.05;;
70549;SDS011;58101;48.658;2.328;2022-12-05T01:38:14;33.42;;;9.73;;
70549;SDS011;58101;48.658;2.328;2022-12-05T01:40:40;33.25;;;10.55;;
70549;SDS011;58101;48.658;2.328;2022-12-05T01:43:09;30.52;;;9.80;;
70549;SDS011;58101;48.658;2.328;2022-12-05T01:48:25;36.55;;;10.95;;
70549;SDS011;58101;48.658;2.328;2022-12-05T01:50:54;37.08;;;11.95;;
70549;SDS011;58101;48.658;2.328;2022-12-05T01:53:21;36.22;;;11.65;;
70549;SDS011;58101;48.658;2.328;2022-12-05T01:55:47;45.50;;;14.20;;
70549;SDS011;58101;48.658;2.328;2022-12-05T01:58:15;40.22;;;13.07;;
70549;SDS011;58101;48.658;2.328;2022-12-05T02:00:42;36.72;;;12.50;;
70549;SDS011;58101;48.658;2.328;2022-12-05T02:03:10;37.08;;;11.50;;
70549;SDS011;58101;48.658;2.328;2022-12-05T02:05:40;43.53;;;12.90;;
70549;SDS011;58101;48.658;2.328;2022-12-05T02:08:07;34.97;;;11.60;;
70549;SDS011;58101;48.658;2.328;2022-12-05T02:10:38;38.70;;;12.30;;
70549;SDS011;58101;48.658;2.328;2022-12-05T02:13:13;35.80;;;11.63;;
70549;SDS011;58101;48.658;2.328;2022-12-05T02:15:59;40.60;;;12.30;;
70549;SDS011;58101;48.658;2.328;2022-12-05T02:18:41;41.80;;;11.85;;
70549;SDS011;58101;48.658;2.328;2022-12-05T02:21:24;37.60;;;11.50;;
70549;SDS011;58101;48.658;2.328;2022-12-05T02:24:17;40.03;;;12.20;;
70549;SDS011;58101;48.658;2.328;2022-12-05T02:33:02;38.92;;;11.75;;
70549;SDS011;58101;48.658;2.328;2022-12-05T02:35:54;39.03;;;11.35;;
70549;SDS011;58101;48.658;2.328;2022-12-05T02:43:39;34.10;;;11.65;;
70549;SDS011;58101;48.658;2.328;2022-12-05T02:46:13;31.85;;;11.02;;
70549;SDS011;58101;48.658;2.328;2022-12-05T02:48:53;33.70;;;11.90;;
70549;SDS011;58101;48.658;2.328;2022-12-05T02:51:23;35.65;;;12.60;;
70549;SDS011;58101;48.658;2.328;2022-12-05T02:53:53;35.72;;;11.00;;
70549;SDS011;58101;48.658;2.328;2022-12-05T02:56:23;37.63;;;11.95;;
70549;SDS011;58101;48.658;2.328;2022-12-05T02:58:52;34.55;;;11.45;;
70549;SDS011;58101;48.658;2.328;2022-12-05T03:01:27;34.35;;;10.80;;
70549;SDS011;58101;48.658;2.328;2022-12-05T03:03:54;33.15;;;10.73;;
70549;SDS011;58101;48.658;2.328;2022-12-05T03:06:35;34.72;;;11.18;;
70549;SDS011;58101;48.658;2.328;2022-12-05T03:11:44;34.53;;;10.80;;
70549;SDS011;58101;48.658;2.328;2022-12-05T03:14:16;38.50;;;11.70;;
70549;SDS011;58101;48.658;2.328;2022-12-05T03:16:50;36.85;;;11.35;;
70549;SDS011;58101;48.658;2.328;2022-12-05T03:24:20;31.63;;;10.40;;
70549;SDS011;58101;48.658;2.328;2022-12-05T03:31:51;34.88;;;11.05;;
70549;SDS011;58101;48.658;2.328;2022-12-05T03:40:25;31.92;;;10.55;;
70549;SDS011;58101;48.658;2.328;2022-12-05T03:43:08;29.60;;;9.65;;
70549;SDS011;58101;48.658;2.328;2022-12-05T03:51:03;32.63;;;11.25;;
70549;SDS011;58101;48.658;2.328;2022-12-05T03:53:35;32.70;;;11.07;;
70549;SDS011;58101;48.658;2.328;2022-12-05T03:56:22;36.72;;;11.00;;
70549;SDS011;58101;48.658;2.328;2022-12-05T03:59:10;34.80;;;12.50;;
70549;SDS011;58101;48.658;2.328;2022-12-05T04:01:58;37.40;;;12.65;;
70549;SDS011;58101;48.658;2.328;2022-12-05T04:04:27;33.72;;;12.52;;
70549;SDS011;58101;48.658;2.328;2022-12-05T04:06:58;35.90;;;12.90;;
70549;SDS011;58101;48.658;2.328;2022-12-05T04:09:30;39.60;;;12.80;;
70549;SDS011;58101;48.658;2.328;2022-12-05T04:12:11;33.92;;;12.32;;
70549;SDS011;58101;48.658;2.328;2022-12-05T04:14:44;31.70;;;11.93;;
70549;SDS011;58101;48.658;2.328;2022-12-05T04:22:40;35.42;;;12.20;;
70549;SDS011;58101;48.658;2.328;2022-12-05T04:25:08;35.55;;;11.25;;
70549;SDS011;58101;48.658;2.328;2022-12-05T04:28:07;32.75;;;11.25;;
70549;SDS011;58101;48.658;2.328;2022-12-05T04:31:06;34.45;;;11.20;;
70549;SDS011;58101;48.658;2.328;2022-12-05T04:33:52;34.58;;;11.23;;
70549;SDS011;58101;48.658;2.328;2022-12-05T04:36:21;30.58;;;9.85;;
70549;SDS011;58101;48.658;2.328;2022-12-05T04:39:07;29.17;;;9.82;;
70549;SDS011;58101;48.658;2.328;2022-12-05T04:42:04;29.45;;;10.13;;
70549;SDS011;58101;48.658;2.328;2022-12-05T04:44:40;28.08;;;10.13;;
70549;SDS011;58101;48.658;2.328;2022-12-05T04:47:10;30.15;;;10.90;;
70549;SDS011;58101;48.658;2.328;2022-12-05T04:49:39;26.25;;;9.90;;
70549;SDS011;58101;48.658;2.328;2022-12-05T04:52:07;30.02;;;10.60;;
70549;SDS011;58101;48.658;2.328;2022-12-05T04:54:38;30.05;;;11.32;;
70549;SDS011;58101;48.658;2.328;2022-12-05T04:59:40;31.38;;;10.70;;
70549;SDS011;58101;48.658;2.328;2022-12-05T05:02:07;27.52;;;9.95;;
70549;SDS011;58101;48.658;2.328;2022-12-05T05:04:35;26.90;;;9.13;;
70549;SDS011;58101;48.658;2.328;2022-12-05T05:07:08;28.08;;;9.88;;
70549;SDS011;58101;48.658;2.328;2022-12-05T05:09:35;29.38;;;10.07;;
70549;SDS011;58101;48.658;2.328;2022-12-05T05:12:02;29.33;;;10.43;;
70549;SDS011;58101;48.658;2.328;2022-12-05T05:14:28;33.05;;;11.38;;
70549;SDS011;58101;48.658;2.328;2022-12-05T05:16:54;32.45;;;11.18;;
70549;SDS011;58101;48.658;2.328;2022-12-05T05:19:20;33.58;;;11.38;;
70549;SDS011;58101;48.658;2.328;2022-12-05T05:21:46;29.23;;;10.60;;
70549;SDS011;58101;48.658;2.328;2022-12-05T05:24:12;30.30;;;11.55;;
70549;SDS011;58101;48.658;2.328;2022-12-05T05:26:40;32.10;;;11.40;;
70549;SDS011;58101;48.658;2.328;2022-12-05T05:29:07;41.08;;;11.13;;
70549;SDS011;58101;48.658;2.328;2022-12-05T05:31:34;33.75;;;11.85;;
70549;SDS011;58101;48.658;2.328;2022-12-05T05:34:01;36.13;;;11.90;;
70549;SDS011;58101;48.658;2.328;2022-12-05T05:36:27;32.20;;;11.20;;
70549;SDS011;58101;48.658;2.328;2022-12-05T05:38:53;33.33;;;12.15;;
70549;SDS011;58101;48.658;2.328;2022-12-05T05:41:22;31.48;;;11.13;;
70549;SDS011;58101;48.658;2.328;2022-12-05T05:43:59;34.30;;;11.70;;
70549;SDS011;58101;48.658;2.328;2022-12-05T05:46:26;32.38;;;11.23;;
70549;SDS011;58101;48.658;2.328;2022-12-05T05:48:54;33.72;;;11.85;;
70549;SDS011;58101;48.658;2.328;2022-12-05T05:51:20;31.92;;;10.57;;
70549;SDS011;58101;48.658;2.328;2022-12-05T05:53:50;32.22;;;11.48;;
70549;SDS011;58101;48.658;2.328;2022-12-05T05:56:16;31.55;;;11.00;;
70549;SDS011;58101;48.658;2.328;2022-12-05T05:58:44;29.80;;;11.07;;
70549;SDS011;58101;48.658;2.328;2022-12-05T06:01:11;29.23;;;10.55;;
70549;SDS011;58101;48.658;2.328;2022-12-05T06:03:39;30.40;;;11.45;;
70549;SDS011;58101;48.658;2.328;2022-12-05T06:06:06;30.42;;;11.27;;
70549;SDS011;58101;48.658;2.328;2022-12-05T06:08:34;30.58;;;10.88;;
70549;SDS011;58101;48.658;2.328;2022-12-05T06:11:05;29.77;;;11.20;;
70549;SDS011;58101;48.658;2.328;2022-12-05T06:13:42;32.75;;;10.95;;
70549;SDS011;58101;48.658;2.328;2022-12-05T06:16:08;34.58;;;11.40;;
70549;SDS011;58101;48.658;2.328;2022-12-05T06:18:36;34.10;;;12.40;;
70549;SDS011;58101;48.658;2.328;2022-12-05T06:21:02;33.08;;;10.90;;
70549;SDS011;58101;48.658;2.328;2022-12-05T06:23:29;34.25;;;11.48;;
70549;SDS011;58101;48.658;2.328;2022-12-05T06:25:55;34.70;;;11.75;;
70549;SDS011;58101;48.658;2.328;2022-12-05T06:28:22;31.17;;;11.07;;
70549;SDS011;58101;48.658;2.328;2022-12-05T06:30:49;30.65;;;11.23;;
70549;SDS011;58101;48.658;2.328;2022-12-05T06:33:15;31.77;;;11.18;;
70549;SDS011;58101;48.658;2.328;2022-12-05T06:35:42;34.80;;;11.23;;
70549;SDS011;58101;48.658;2.328;2022-12-05T06:38:08;33.13;;;11.20;;
70549;SDS011;58101;48.658;2.328;2022-12-05T06:40:41;30.00;;;10.98;;
70549;SDS011;58101;48.658;2.328;2022-12-05T06:43:07;30.27;;;10.82;;
70549;SDS011;58101;48.658;2.328;2022-12-05T06:45:33;32.58;;;11.90;;
70549;SDS011;58101;48.658;2.328;2022-12-05T06:50:26;31.27;;;10.68;;
70549;SDS011;58101;48.658;2.328;2022-12-05T06:52:52;33.50;;;11.18;;
70549;SDS011;58101;48.658;2.328;2022-12-05T06:55:17;36.15;;;12.07;;
70549;SDS011;58101;48.658;2.328;2022-12-05T06:57:43;36.50;;;11.38;;
70549;SDS011;58101;48.658;2.328;2022-12-05T07:00:09;35.28;;;11.77;;
70549;SDS011;58101;48.658;2.328;2022-12-05T07:02:54;35.95;;;13.13;;
70549;SDS011;58101;48.658;2.328;2022-12-05T07:05:19;34.53;;;12.05;;
70549;SDS011;58101;48.658;2.328;2022-12-05T07:07:45;36.20;;;12.88;;
70549;SDS011;58101;48.658;2.328;2022-12-05T07:10:11;38.95;;;12.68;;
70549;SDS011;58101;48.658;2.328;2022-12-05T07:12:36;38.75;;;12.05;;
70549;SDS011;58101;48.658;2.328;2022-12-05T07:15:02;39.90;;;13.45;;
70549;SDS011;58101;48.658;2.328;2022-12-05T07:17:28;35.30;;;11.95;;
70549;SDS011;58101;48.658;2.328;2022-12-05T07:19:54;38.75;;;13.35;;
70549;SDS011;58101;48.658;2.328;2022-12-05T07:22:20;42.22;;;14.13;;
70549;SDS011;58101;48.658;2.328;2022-12-05T07:24:47;37.67;;;13.07;;
70549;SDS011;58101;48.658;2.328;2022-12-05T07:27:15;39.95;;;13.07;;
70549;SDS011;58101;48.658;2.328;2022-12-05T07:29:41;33.05;;;12.45;;
70549;SDS011;58101;48.658;2.328;2022-12-05T07:32:07;36.95;;;12.77;;
70549;SDS011;58101;48.658;2.328;2022-12-05T07:34:33;34.63;;;11.38;;
70549;SDS011;58101;48.658;2.328;2022-12-05T07:36:59;37.15;;;12.48;;
70549;SDS011;58101;48.658;2.328;2022-12-05T07:39:25;36.08;;;12.25;;
70549;SDS011;58101;48.658;2.328;2022-12-05T07:41:51;41.22;;;12.05;;
70549;SDS011;58101;48.658;2.328;2022-12-05T07:44:17;36.47;;;12.27;;
70549;SDS011;58101;48.658;2.328;2022-12-05T07:46:43;36.83;;;12.98;;
70549;SDS011;58101;48.658;2.328;2022-12-05T07:49:08;36.35;;;13.35;;
70549;SDS011;58101;48.658;2.328;2022-12-05T07:51:34;44.17;;;14.27;;
70549;SDS011;58101;48.658;2.328;2022-12-05T07:54:00;38.10;;;12.73;;
70549;SDS011;58101;48.658;2.328;2022-12-05T07:56:26;40.63;;;13.15;;
70549;SDS011;58101;48.658;2.328;2022-12-05T08:01:23;38.00;;;12.57;;
70549;SDS011;58101;48.658;2.328;2022-12-05T08:03:53;38.53;;;13.32;;
70549;SDS011;58101;48.658;2.328;2022-12-05T08:06:42;34.17;;;11.55;;
70549;SDS011;58101;48.658;2.328;2022-12-05T08:09:06;37.17;;;11.85;;
70549;SDS011;58101;48.658;2.328;2022-12-05T08:11:32;38.90;;;12.88;;
70549;SDS011;58101;48.658;2.328;2022-12-05T08:14:00;35.08;;;11.80;;
70549;SDS011;58101;48.658;2.328;2022-12-05T08:16:28;34.95;;;11.63;;
70549;SDS011;58101;48.658;2.328;2022-12-05T08:19:01;36.45;;;12.38;;
70549;SDS011;58101;48.658;2.328;2022-12-05T08:21:31;36.95;;;12.00;;
70549;SDS011;58101;48.658;2.328;2022-12-05T08:23:57;36.22;;;12.00;;
70549;SDS011;58101;48.658;2.328;2022-12-05T08:26:27;40.03;;;11.98;;
70549;SDS011;58101;48.658;2.328;2022-12-05T08:29:07;40.83;;;12.52;;
70549;SDS011;58101;48.658;2.328;2022-12-05T08:31:39;38.13;;;11.73;;
70549;SDS011;58101;48.658;2.328;2022-12-05T08:34:14;36.90;;;12.38;;
70549;SDS011;58101;48.658;2.328;2022-12-05T08:36:41;34.28;;;12.10;;
70549;SDS011;58101;48.658;2.328;2022-12-05T08:39:07;44.15;;;14.40;;
70549;SDS011;58101;48.658;2.328;2022-12-05T08:41:38;40.28;;;12.45;;
70549;SDS011;58101;48.658;2.328;2022-12-05T08:44:04;44.17;;;12.85;;
70549;SDS011;58101;48.658;2.328;2022-12-05T08:46:32;34.15;;;11.18;;
70549;SDS011;58101;48.658;2.328;2022-12-05T08:48:59;36.95;;;12.68;;
70549;SDS011;58101;48.658;2.328;2022-12-05T08:51:26;38.67;;;12.13;;
70549;SDS011;58101;48.658;2.328;2022-12-05T08:53:52;35.20;;;11.30;;
70549;SDS011;58101;48.658;2.328;2022-12-05T08:56:17;30.33;;;11.07;;
70549;SDS011;58101;48.658;2.328;2022-12-05T08:58:44;31.98;;;11.52;;
70549;SDS011;58101;48.658;2.328;2022-12-05T09:01:11;32.28;;;11.00;;
70549;SDS011;58101;48.658;2.328;2022-12-05T09:03:41;34.22;;;11.55;;
70549;SDS011;58101;48.658;2.328;2022-12-05T09:06:11;34.33;;;11.32;;
70549;SDS011;58101;48.658;2.328;2022-12-05T09:08:40;34.30;;;12.15;;
70549;SDS011;58101;48.658;2.328;2022-12-05T09:11:06;37.38;;;12.82;;
70549;SDS011;58101;48.658;2.328;2022-12-05T09:13:34;35.15;;;11.85;;
70549;SDS011;58101;48.658;2.328;2022-12-05T09:16:07;34.20;;;11.50;;
70549;SDS011;58101;48.658;2.328;2022-12-05T09:21:07;34.92;;;11.90;;
70549;SDS011;58101;48.658;2.328;2022-12-05T09:23:37;36.40;;;12.40;;
70549;SDS011;58101;48.658;2.328;2022-12-05T09:26:03;35.15;;;12.00;;
70549;SDS011;58101;48.658;2.328;2022-12-05T09:30:58;33.97;;;11.45;;
70549;SDS011;58101;48.658;2.328;2022-12-05T09:33:28;34.83;;;11.93;;
70549;SDS011;58101;48.658;2.328;2022-12-05T09:35:56;31.27;;;10.85;;
70549;SDS011;58101;48.658;2.328;2022-12-05T09:38:22;33.55;;;11.57;;
70549;SDS011;58101;48.658;2.328;2022-12-05T09:40:53;31.00;;;11.40;;
70549;SDS011;58101;48.658;2.328;2022-12-05T09:43:48;32.20;;;12.52;;
70549;SDS011;58101;48.658;2.328;2022-12-05T09:46:19;27.98;;;10.65;;
70549;SDS011;58101;48.658;2.328;2022-12-05T09:49:03;31.48;;;11.00;;
70549;SDS011;58101;48.658;2.328;2022-12-05T09:51:33;27.90;;;10.15;;
70549;SDS011;58101;48.658;2.328;2022-12-05T09:54:04;29.02;;;10.80;;
70549;SDS011;58101;48.658;2.328;2022-12-05T09:56:30;27.48;;;10.30;;
70549;SDS011;58101;48.658;2.328;2022-12-05T09:58:56;26.15;;;10.23;;
70549;SDS011;58101;48.658;2.328;2022-12-05T10:10:05;27.10;;;10.10;;
70549;SDS011;58101;48.658;2.328;2022-12-05T10:15:48;30.65;;;11.10;;
70549;SDS011;58101;48.658;2.328;2022-12-05T10:26:13;27.33;;;10.13;;
70549;SDS011;58101;48.658;2.328;2022-12-05T10:28:45;29.10;;;10.85;;
70549;SDS011;58101;48.658;2.328;2022-12-05T10:31:31;28.58;;;10.60;;
70549;SDS011;58101;48.658;2.328;2022-12-05T10:34:04;28.70;;;10.85;;
70549;SDS011;58101;48.658;2.328;2022-12-05T10:36:54;28.73;;;11.07;;
70549;SDS011;58101;48.658;2.328;2022-12-05T10:39:24;33.42;;;12.20;;
70549;SDS011;58101;48.658;2.328;2022-12-05T10:41:51;32.65;;;12.30;;
70549;SDS011;58101;48.658;2.328;2022-12-05T10:44:17;35.40;;;11.20;;
70549;SDS011;58101;48.658;2.328;2022-12-05T10:46:43;30.33;;;11.38;;
70549;SDS011;58101;48.658;2.328;2022-12-05T10:49:10;28.70;;;11.23;;
70549;SDS011;58101;48.658;2.328;2022-12-05T10:51:36;63.72;;;20.52;;
70549;SDS011;58101;48.658;2.328;2022-12-05T10:54:19;33.58;;;13.07;;
70549;SDS011;58101;48.658;2.328;2022-12-05T10:56:49;31.52;;;11.88;;
70549;SDS011;58101;48.658;2.328;2022-12-05T10:59:18;29.15;;;11.25;;
70549;SDS011;58101;48.658;2.328;2022-12-05T11:01:49;29.35;;;11.63;;
70549;SDS011;58101;48.658;2.328;2022-12-05T11:04:20;32.70;;;11.32;;
70549;SDS011;58101;48.658;2.328;2022-12-05T11:07:09;33.08;;;11.82;;
70549;SDS011;58101;48.658;2.328;2022-12-05T11:09:56;31.15;;;11.15;;
70549;SDS011;58101;48.658;2.328;2022-12-05T11:12:24;29.05;;;10.70;;
70549;SDS011;58101;48.658;2.328;2022-12-05T11:17:23;28.90;;;10.38;;
70549;SDS011;58101;48.658;2.328;2022-12-05T11:19:59;30.73;;;11.07;;
70549;SDS011;58101;48.658;2.328;2022-12-05T11:22:30;26.25;;;9.75;;
70549;SDS011;58101;48.658;2.328;2022-12-05T11:24:59;27.67;;;9.93;;
70549;SDS011;58101;48.658;2.328;2022-12-05T11:27:27;28.60;;;10.68;;
70549;SDS011;58101;48.658;2.328;2022-12-05T11:30:14;31.23;;;10.68;;
70549;SDS011;58101;48.658;2.328;2022-12-05T11:32:43;29.48;;;10.23;;
70549;SDS011;58101;48.658;2.328;2022-12-05T11:37:46;30.73;;;10.98;;
70549;SDS011;58101;48.658;2.328;2022-12-05T11:49:31;29.90;;;10.88;;
70549;SDS011;58101;48.658;2.328;2022-12-05T11:57:39;29.25;;;11.30;;
70549;SDS011;58101;48.658;2.328;2022-12-05T12:06:26;33.85;;;11.60;;
70549;SDS011;58101;48.658;2.328;2022-12-05T12:11:59;33.75;;;11.35;;
70549;SDS011;58101;48.658;2.328;2022-12-05T12:17:17;29.83;;;10.38;;
70549;SDS011;58101;48.658;2.328;2022-12-05T12:31:48;34.92;;;12.18;;
70549;SDS011;58101;48.658;2.328;2022-12-05T12:40:11;31.10;;;12.45;;
70549;SDS011;58101;48.658;2.328;2022-12-05T12:50:52;30.27;;;11.57;;
70549;SDS011;58101;48.658;2.328;2022-12-05T12:53:25;33.17;;;11.93;;
70549;SDS011;58101;48.658;2.328;2022-12-05T13:12:21;34.78;;;13.05;;
70549;SDS011;58101;48.658;2.328;2022-12-05T13:14:53;40.97;;;13.32;;
70549;SDS011;58101;48.658;2.328;2022-12-05T13:17:24;51.13;;;17.58;;
70549;SDS011;58101;48.658;2.328;2022-12-05T13:19:51;71.25;;;22.23;;
70549;SDS011;58101;48.658;2.328;2022-12-05T13:24:49;40.80;;;14.18;;
70549;SDS011;58101;48.658;2.328;2022-12-05T13:27:18;43.55;;;14.30;;
70549;SDS011;58101;48.658;2.328;2022-12-05T13:32:39;39.38;;;13.27;;
70549;SDS011;58101;48.658;2.328;2022-12-05T13:38:04;38.17;;;13.30;;
70549;SDS011;58101;48.658;2.328;2022-12-05T13:40:49;53.08;;;16.23;;
70549;SDS011;58101;48.658;2.328;2022-12-05T13:43:39;36.63;;;13.48;;
70549;SDS011;58101;48.658;2.328;2022-12-05T13:46:08;40.83;;;12.80;;
70549;SDS011;58101;48.658;2.328;2022-12-05T13:48:38;41.92;;;14.90;;
70549;SDS011;58101;48.658;2.328;2022-12-05T13:51:08;55.90;;;18.05;;
70549;SDS011;58101;48.658;2.328;2022-12-05T13:53:40;71.88;;;19.60;;
70549;SDS011;58101;48.658;2.328;2022-12-05T13:58:51;59.67;;;17.52;;
70549;SDS011;58101;48.658;2.328;2022-12-05T14:01:44;56.15;;;17.05;;
70549;SDS011;58101;48.658;2.328;2022-12-05T14:04:22;50.10;;;15.60;;
70549;SDS011;58101;48.658;2.328;2022-12-05T14:07:07;48.03;;;15.63;;
70549;SDS011;58101;48.658;2.328;2022-12-05T14:09:50;98.85;;;25.25;;
70549;SDS011;58101;48.658;2.328;2022-12-05T14:26:06;42.67;;;14.10;;
70549;SDS011;58101;48.658;2.328;2022-12-05T14:36:51;44.85;;;15.45;;
70549;SDS011;58101;48.658;2.328;2022-12-05T14:39:51;48.50;;;16.77;;
70549;SDS011;58101;48.658;2.328;2022-12-05T14:42:21;46.35;;;16.00;;
70549;SDS011;58101;48.658;2.328;2022-12-05T14:45:00;46.10;;;15.75;;
70549;SDS011;58101;48.658;2.328;2022-12-05T14:47:54;41.53;;;14.15;;
70549;SDS011;58101;48.658;2.328;2022-12-05T14:55:44;44.97;;;14.40;;
70549;SDS011;58101;48.658;2.328;2022-12-05T14:58:16;45.63;;;14.63;;
70549;SDS011;58101;48.658;2.328;2022-12-05T15:01:40;40.90;;;14.68;;
70549;SDS011;58101;48.658;2.328;2022-12-05T15:06:31;50.42;;;16.70;;
70549;SDS011;58101;48.658;2.328;2022-12-05T15:09:07;52.30;;;16.85;;
70549;SDS011;58101;48.658;2.328;2022-12-05T15:11:45;49.63;;;17.13;;
70549;SDS011;58101;48.658;2.328;2022-12-05T15:14:16;54.22;;;17.45;;
70549;SDS011;58101;48.658;2.328;2022-12-05T15:16:45;51.92;;;16.67;;
70549;SDS011;58101;48.658;2.328;2022-12-05T15:19:22;49.65;;;15.48;;
70549;SDS011;58101;48.658;2.328;2022-12-05T15:21:54;53.65;;;16.35;;
70549;SDS011;58101;48.658;2.328;2022-12-05T15:24:22;45.95;;;15.18;;
70549;SDS011;58101;48.658;2.328;2022-12-05T15:29:38;51.08;;;15.68;;
70549;SDS011;58101;48.658;2.328;2022-12-05T15:32:13;51.35;;;15.15;;
70549;SDS011;58101;48.658;2.328;2022-12-05T15:34:52;48.13;;;16.08;;
70549;SDS011;58101;48.658;2.328;2022-12-05T15:40:16;48.97;;;16.42;;
70549;SDS011;58101;48.658;2.328;2022-12-05T15:42:46;51.28;;;16.58;;
70549;SDS011;58101;48.658;2.328;2022-12-05T15:45:20;47.88;;;16.00;;
70549;SDS011;58101;48.658;2.328;2022-12-05T15:47:54;52.17;;;16.40;;
70549;SDS011;58101;48.658;2.328;2022-12-05T15:53:18;48.47;;;15.82;;
70549;SDS011;58101;48.658;2.328;2022-12-05T15:55:53;53.90;;;16.80;;
70549;SDS011;58101;48.658;2.328;2022-12-05T16:03:43;47.38;;;15.23;;
70549;SDS011;58101;48.658;2.328;2022-12-05T16:06:48;52.10;;;16.67;;
70549;SDS011;58101;48.658;2.328;2022-12-05T16:09:17;49.08;;;15.23;;
70549;SDS011;58101;48.658;2.328;2022-12-05T16:11:49;49.28;;;15.82;;
70549;SDS011;58101;48.658;2.328;2022-12-05T16:14:15;43.67;;;14.95;;
70549;SDS011;58101;48.658;2.328;2022-12-05T16:16:41;49.58;;;16.10;;
70549;SDS011;58101;48.658;2.328;2022-12-05T16:19:20;52.95;;;15.93;;
70549;SDS011;58101;48.658;2.328;2022-12-05T16:21:58;50.47;;;16.92;;
70549;SDS011;58101;48.658;2.328;2022-12-05T16:24:27;53.85;;;17.95;;
70549;SDS011;58101;48.658;2.328;2022-12-05T16:29:34;57.00;;;19.60;;
70549;SDS011;58101;48.658;2.328;2022-12-05T16:32:00;59.40;;;19.17;;
70549;SDS011;58101;48.658;2.328;2022-12-05T16:34:28;53.17;;;18.20;;
70549;SDS011;58101;48.658;2.328;2022-12-05T16:36:57;52.45;;;17.90;;
70549;SDS011;58101;48.658;2.328;2022-12-05T16:39:24;53.58;;;17.67;;
70549;SDS011;58101;48.658;2.328;2022-12-05T16:41:52;50.28;;;17.30;;
70549;SDS011;58101;48.658;2.328;2022-12-05T16:47:22;49.35;;;15.98;;
70549;SDS011;58101;48.658;2.328;2022-12-05T16:49:49;49.58;;;15.68;;
70549;SDS011;58101;48.658;2.328;2022-12-05T16:52:16;55.38;;;16.92;;
70549;SDS011;58101;48.658;2.328;2022-12-05T16:54:45;59.50;;;18.40;;
70549;SDS011;58101;48.658;2.328;2022-12-05T16:57:13;56.42;;;18.27;;
70549;SDS011;58101;48.658;2.328;2022-12-05T16:59:40;60.53;;;19.38;;
70549;SDS011;58101;48.658;2.328;2022-12-05T17:02:10;64.25;;;19.33;;
70549;SDS011;58101;48.658;2.328;2022-12-05T17:04:38;65.40;;;21.13;;
70549;SDS011;58101;48.658;2.328;2022-12-05T17:07:07;61.28;;;20.83;;
70549;SDS011;58101;48.658;2.328;2022-12-05T17:09:36;76.07;;;24.85;;
70549;SDS011;58101;48.658;2.328;2022-12-05T17:12:20;56.30;;;18.73;;
70549;SDS011;58101;48.658;2.328;2022-12-05T17:14:48;58.10;;;18.42;;
70549;SDS011;58101;48.658;2.328;2022-12-05T17:17:19;93.65;;;27.73;;
70549;SDS011;58101;48.658;2.328;2022-12-05T17:19:45;56.05;;;18.65;;
70549;SDS011;58101;48.658;2.328;2022-12-05T17:22:11;52.70;;;17.83;;
70549;SDS011;58101;48.658;2.328;2022-12-05T17:24:39;60.20;;;20.05;;
70549;SDS011;58101;48.658;2.328;2022-12-05T17:27:08;91.55;;;28.33;;
70549;SDS011;58101;48.658;2.328;2022-12-05T17:29:41;64.72;;;22.08;;
70549;SDS011;58101;48.658;2.328;2022-12-05T17:32:08;63.30;;;21.05;;
70549;SDS011;58101;48.658;2.328;2022-12-05T17:34:34;62.30;;;19.85;;
70549;SDS011;58101;48.658;2.328;2022-12-05T17:37:00;53.33;;;18.33;;
70549;SDS011;58101;48.658;2.328;2022-12-05T17:39:32;60.10;;;18.88;;
70549;SDS011;58101;48.658;2.328;2022-12-05T17:41:57;53.95;;;18.58;;
70549;SDS011;58101;48.658;2.328;2022-12-05T17:44:23;53.88;;;16.80;;
70549;SDS011;58101;48.658;2.328;2022-12-05T17:46:49;56.75;;;18.05;;
70549;SDS011;58101;48.658;2.328;2022-12-05T17:49:20;53.03;;;17.90;;
70549;SDS011;58101;48.658;2.328;2022-12-05T17:51:46;53.75;;;18.70;;
70549;SDS011;58101;48.658;2.328;2022-12-05T17:54:12;56.28;;;18.23;;
70549;SDS011;58101;48.658;2.328;2022-12-05T17:56:38;54.63;;;16.80;;
70549;SDS011;58101;48.658;2.328;2022-12-05T17:59:04;57.58;;;17.80;;
70549;SDS011;58101;48.658;2.328;2022-12-05T18:01:38;50.67;;;17.77;;
70549;SDS011;58101;48.658;2.328;2022-12-05T18:10:21;63.17;;;21.77;;
70549;SDS011;58101;48.658;2.328;2022-12-05T18:12:47;62.55;;;20.50;;
70549;SDS011;58101;48.658;2.328;2022-12-05T18:15:15;57.20;;;20.67;;
70549;SDS011;58101;48.658;2.328;2022-12-05T18:17:41;53.38;;;19.27;;
70549;SDS011;58101;48.658;2.328;2022-12-05T18:20:08;60.65;;;19.02;;
70549;SDS011;58101;48.658;2.328;2022-12-05T18:22:36;53.50;;;17.50;;